Cudworth, Canada
Current Conditions -  °F | °C
As of 11:00 AM on Monday 22 Dec 2014 (Local Time) from CYXE Reporting Station
Overcast Overcast  
Wind Chill: 10°   Ceiling: 700
Heat Index: 21°   Visibility: 10mi
Dew Point: 19°   Wind: 10mph
Humidity: 93%   Direction: 10°N
Pressure: 29.77"   Gusts: NA
Location:  52.48°N, 105.72°W
Report Text: CYXE 221700Z 01009KT 10SM OVC007 M06/M07 A2977 RMK ST8 BR SLP113
Loading
Personal Weather Stations






























Interactive Weather Map New forecast layout! Learn more

10-Day Weather Forecast

Advertisements
Track Severe Weather on mobile